South Ryegate, VT (05069)

1:52 PM EDT on October 30, 2014 (GMT -0400)
Barnet School | Change Station
CLOSE
Current Station
Personal Weather Station
Location: Barnet, VT
Elevation: 728 ft
Nearby Weather Stations

Elev 728 ft 44.31 °N, 72.08 °W | Updated 2 minutes ago

Overcast
Overcast
48.6 °F
Feels Like 49 °F
N
2.0
Wind Variable Wind from East
Gusts 4.0 mph

Today
High -- | Low -- °F
--% Chance of Precip.
Yesterday
High -- | Low -- °F
Precip. -- in
7:22 AM 5:40 PM
Waxing Crescent, 46% visible
Pressure 30.00 in
Visibility 10.0 miles
Clouds Overcast 3500 ft
Windchill 49 °F
Dew Point 39 °F
Humidity 69%
Rainfall 0.02 in
Snow Depth Not available.
UV 1 out of 12
Pollen .10 out of 12
Air Quality Not available.
Flu Activity Not available.
METAR KMPV 301651Z AUTO 33005KT 10SM OVC035 07/02 A2997 RMK AO2 SLP159 T00720017

More Conditions Fewer Conditions

Pressure 30.00 in
Visibility 10.0 miles
Clouds Overcast 3500 ft
Windchill 49 °F
Dew Point 39 °F
Humidity 69%
Rainfall 0.02 in
Snow Depth Not available.
UV 1 out of 12
Pollen .10 out of 12
Air Quality Not available.
Flu Activity Not available.
METAR KMPV 301651Z AUTO 33005KT 10SM OVC035 07/02 A2997 RMK AO2 SLP159 T00720017

More Conditions Fewer Conditions

10-Day Weather Forecast

Almanac

Astronomy

Oct. 30, 2014 Rise Set
Actual Time
Civil Twilight
Nautical Twilight
Astronomical Twilight
Moon
Length of Visible Light
Length of Day
Tomorrow will be .
, % of the Moon is Illuminated

Today's Extremes

State Highs State Lows

Community

WunderPhotos

Upload Photos

1,766,409 photos uploaded!

WunderBlogs® & News

Nearby

Air Quality

  Air Quality AQ Index Pollutant
Not available.

Snow Depth

Station Depth Elevation

Earthquake Activity

City Distance Mag. Time & Date
Minimum magnitude displayed is 2.5.

Coastal Water Temperatures

Place Temperature

Nearby Weather Stations